Time;durP1;ratioP1;P1;durP2;ratioP2;P2;SDS_P1;SDS_P2;PMS_P1;PMS_P2;Temp;Humidity;BMP_temperature;BMP_pressure;BME280_temperature;BME280_humidity;BME280_pressure;Samples;Min_cycle;Max_cycle;Signal;HPM_P1;HPM_P2
2022/06/04 00:01:00;;;;;;;4.87;3.57;;;16.40;62.60;;;19.22;48.17;102033.41;5126502;28;20588;-58
2022/06/04 00:03:28;;;;;;;4.73;3.30;;;16.40;62.80;;;19.18;48.51;102027.66;5110999;28;20214;-60
2022/06/04 00:05:57;;;;;;;5.10;3.47;;;16.30;63.20;;;19.17;48.57;102030.53;5105090;28;20339;-60
2022/06/04 00:08:25;;;;;;;5.00;3.53;;;16.30;63.20;;;19.14;48.77;102026.41;5108160;28;20632;-60
2022/06/04 00:16:30;;;;;;;6.00;3.47;;;16.30;63.50;;;19.12;48.89;102030.28;5151644;27;20646;-59
2022/06/04 00:18:58;;;;;;;4.10;3.70;;;16.30;63.70;;;19.12;48.75;102030.28;5129651;28;20195;-59
2022/06/04 00:21:25;;;;;;;5.60;3.53;;;16.30;63.60;;;19.12;48.92;102030.28;5130009;28;20191;-58
2022/06/04 00:23:53;;;;;;;4.17;3.77;;;16.30;63.70;;;19.12;48.94;102028.44;5122387;28;20195;-61
2022/06/04 00:26:20;;;;;;;4.70;4.30;;;16.30;63.80;;;19.13;48.72;102026.59;5119768;28;20294;-61
2022/06/04 00:28:47;;;;;;;5.50;3.43;;;16.30;63.50;;;19.14;49.01;102030.91;5112938;28;20662;-61
2022/06/04 00:31:16;;;;;;;6.50;4.07;;;16.40;63.80;;;19.14;48.81;102028.25;5017152;28;20200;-59
2022/06/04 00:37:11;;;;;;;6.93;3.93;;;16.40;63.80;;;19.09;49.01;102028.03;5214129;27;20635;-59
2022/06/04 00:39:39;;;;;;;5.10;4.63;;;16.30;63.70;;;19.05;48.87;102032.09;5192709;27;20199;-59
2022/06/04 00:42:10;;;;;;;4.97;3.73;;;16.20;63.60;;;18.99;49.02;102032.91;5172697;27;20201;-59
2022/06/04 00:45:32;;;;;;;5.93;3.33;;;16.20;64.00;;;18.87;49.47;102028.09;5187559;27;20212;-58
2022/06/04 00:47:59;;;;;;;4.53;4.10;;;16.20;64.30;;;18.90;49.44;102027.72;5069963;28;20624;-57
2022/06/04 00:50:30;;;;;;;5.07;4.00;;;16.20;64.30;;;18.88;49.27;102027.09;5017153;28;20255;-59
2022/06/04 00:53:02;;;;;;;6.23;4.23;;;16.10;64.30;;;18.85;49.52;102027.50;4870529;29;20257;-58
2022/06/04 00:55:29;;;;;;;4.30;3.90;;;16.10;64.80;;;18.85;49.75;102022.16;4559925;30;20273;-65
2022/06/04 01:00:40;;;;;;;5.47;3.80;;;16.10;64.70;;;18.91;49.40;102032.06;5214336;27;21162;-60
2022/06/04 01:03:34;;;;;;;6.93;4.50;;;16.10;64.40;;;18.88;49.36;102026.28;5173702;27;20204;-60
2022/06/04 01:06:39;;;;;;;6.80;4.00;;;16.10;64.30;;;18.85;49.28;102022.16;5159328;27;20202;-60
2022/06/04 01:09:38;;;;;;;5.37;4.13;;;16.20;64.20;;;18.82;49.33;102017.22;5121041;27;20226;-60
2022/06/04 01:12:34;;;;;;;5.27;4.50;;;16.10;64.00;;;18.81;49.54;102018.25;4916585;29;20598;-60
2022/06/04 01:15:16;;;;;;;9.43;4.63;;;16.10;64.30;;;18.81;49.47;102020.91;4771565;29;20235;-60
2022/06/04 01:21:25;;;;;;;8.47;5.47;;;16.10;64.40;;;18.74;49.62;102028.03;5171846;27;20617;-60
2022/06/04 01:24:40;;;;;;;6.53;4.13;;;16.00;64.50;;;18.67;49.70;102035.19;5132764;27;20224;-59
2022/06/04 01:27:22;;;;;;;6.47;4.80;;;16.00;64.60;;;18.69;49.62;102037.66;5068388;28;20418;-61
2022/06/04 01:30:00;;;;;;;5.13;4.57;;;16.00;64.50;;;18.69;49.79;102041.16;5044748;28;20328;-59
2022/06/04 01:33:03;;;;;;;5.40;4.90;;;16.00;64.90;;;18.66;49.68;102038.84;4823680;29;20216;-60
2022/06/04 01:35:39;;;;;;;6.50;5.70;;;15.90;64.80;;;18.62;49.77;102048.28;4818210;29;20217;-60
2022/06/04 01:41:03;;;;;;;6.90;4.67;;;15.80;64.60;;;18.55;49.95;102047.41;4761957;29;20599;-60
2022/06/04 01:44:57;;;;;;;6.10;4.97;;;15.80;65.00;;;18.44;50.26;102034.59;5166726;27;20640;-60
2022/06/04 01:47:26;;;;;;;6.00;4.80;;;15.70;65.30;;;18.44;50.01;102034.59;5105010;28;20654;-60
2022/06/04 01:49:56;;;;;;;8.63;4.60;;;15.70;65.20;;;18.42;50.25;102025.13;5090970;28;20241;-60
2022/06/04 01:52:28;;;;;;;7.53;5.67;;;15.70;66.20;;;18.40;50.19;102033.31;5052397;28;20547;-60
2022/06/04 01:55:08;;;;;;;6.30;5.67;;;15.60;65.50;;;18.38;50.39;102024.69;4980228;28;20230;-61
2022/06/04 01:57:41;;;;;;;5.40;4.90;;;15.60;65.70;;;18.38;50.24;102027.34;4952004;28;20203;-60
2022/06/04 02:00:15;;;;;;;6.90;5.60;;;15.60;65.70;;;18.38;50.29;102024.69;4980723;28;20200;-60
2022/06/04 02:03:58;;;;;;;5.80;4.83;;;15.60;65.60;;;18.28;50.41;102026.84;4889415;29;20212;-60
2022/06/04 02:09:12;;;;;;;6.03;5.37;;;15.50;65.40;;;18.25;50.62;102019.28;5172116;27;20633;-58
2022/06/04 02:11:50;;;;;;;8.33;6.20;;;15.50;65.70;;;18.24;50.25;102022.94;5132717;27;20289;-58
2022/06/04 02:14:17;;;;;;;6.03;5.37;;;15.50;65.50;;;18.20;50.63;102021.69;5109118;28;20200;-61
2022/06/04 02:16:53;;;;;;;10.77;8.50;;;15.40;65.70;;;18.15;50.55;102029.44;5133733;28;20223;-59
2022/06/04 02:19:19;;;;;;;10.03;7.20;;;15.40;65.90;;;18.13;50.58;102042.97;5079953;28;20288;-59
2022/06/04 02:21:46;;;;;;;9.93;6.70;;;15.40;66.10;;;18.10;50.82;102039.84;5061113;28;20637;-60
2022/06/04 02:24:14;;;;;;;9.13;6.40;;;15.30;66.20;;;18.06;50.68;102035.91;5063723;28;20200;-63
2022/06/04 02:26:42;;;;;;;7.57;5.90;;;15.20;66.40;;;18.03;51.16;102033.63;5062180;28;20199;-60
2022/06/04 02:29:08;;;;;;;10.27;6.37;;;15.20;66.60;;;18.02;51.16;102037.28;5060327;28;20198;-59
2022/06/04 02:34:25;;;;;;;9.23;6.93;;;15.20;66.70;;;18.00;51.25;102042.00;5171164;27;20637;-61
2022/06/04 02:37:01;;;;;;;8.80;7.50;;;15.20;66.80;;;18.03;50.80;102052.28;5092365;28;20290;-59
2022/06/04 02:39:38;;;;;;;8.90;6.23;;;15.30;66.50;;;18.04;50.90;102053.94;5109053;28;20218;-58
2022/06/04 02:42:13;;;;;;;7.97;6.40;;;15.30;66.70;;;18.05;51.12;102052.91;5036898;28;20199;-59
2022/06/04 02:44:49;;;;;;;8.73;6.60;;;15.30;66.70;;;18.07;51.00;102053.53;4973701;28;20616;-60
2022/06/04 02:47:24;;;;;;;9.10;6.53;;;15.30;66.70;;;18.08;51.08;102061.34;4899957;29;20668;-63
2022/06/04 02:50:00;;;;;;;8.20;7.23;;;15.30;66.50;;;18.11;50.91;102060.16;4913173;29;20286;-61
2022/06/04 02:55:46;;;;;;;8.93;7.50;;;15.30;66.10;;;18.07;50.67;102064.19;5165388;27;20645;-59
2022/06/04 02:58:18;;;;;;;7.47;6.17;;;15.30;66.00;;;18.06;50.57;102065.22;5150587;27;20541;-60
2022/06/04 03:00:51;;;;;;;8.37;6.97;;;15.30;66.20;;;18.04;50.75;102059.28;5150465;27;20677;-61
2022/06/04 03:03:18;;;;;;;10.07;7.77;;;15.30;66.20;;;18.02;50.86;102071.94;5149806;27;20285;-60
2022/06/04 03:05:54;;;;;;;10.17;7.10;;;15.20;66.00;;;17.98;50.51;102076.84;5137595;27;20727;-59
2022/06/04 03:08:22;;;;;;;10.37;7.53;;;15.20;65.80;;;17.98;50.75;102081.34;5121190;27;20206;-58
2022/06/04 03:10:50;;;;;;;10.83;9.73;;;15.20;66.30;;;17.97;50.58;102085.81;5076666;28;20293;-58
2022/06/04 03:13:20;;;;;;;9.97;8.60;;;15.20;66.10;;;17.94;50.68;102091.56;4998814;28;20220;-61
2022/06/04 03:16:01;;;;;;;11.60;8.37;;;15.20;66.20;;;17.90;50.83;102092.13;4913143;28;20320;-60
2022/06/04 03:21:06;;;;;;;11.80;9.10;;;15.10;66.30;;;17.79;51.09;102088.09;5171959;27;20641;-60
2022/06/04 03:23:33;;;;;;;9.73;7.70;;;15.00;66.60;;;17.74;51.17;102076.34;5150743;27;20517;-59
2022/06/04 03:26:00;;;;;;;9.40;7.80;;;14.90;67.20;;;17.72;51.37;102081.06;5139678;27;20309;-60
2022/06/04 03:28:26;;;;;;;9.07;7.57;;;14.90;67.30;;;17.71;51.49;102074.09;5144850;27;20551;-60
2022/06/04 03:30:53;;;;;;;10.27;8.30;;;14.90;67.30;;;17.73;51.42;102077.38;5120122;28;20271;-60
2022/06/04 03:33:20;;;;;;;11.93;9.37;;;14.90;67.20;;;17.71;51.31;102080.22;5076510;28;20219;-60
2022/06/04 03:35:47;;;;;;;13.30;9.30;;;14.90;66.90;;;17.67;51.47;102076.28;4914911;28;20593;-59
2022/06/04 03:38:15;;;;;;;11.63;9.00;;;14.80;67.70;;;17.62;51.16;102077.84;4790134;29;20263;-61
2022/06/04 03:40:41;;;;;;;13.93;8.83;;;14.80;67.00;;;17.53;51.23;102072.66;4822342;29;20229;-60
2022/06/04 03:43:07;;;;;;;12.93;9.70;;;14.70;67.00;;;17.50;51.46;102078.31;4770522;29;20571;-60
2022/06/04 03:48:04;;;;;;;11.17;8.50;;;14.70;67.30;;;17.44;51.69;102083.56;5171910;27;20453;-59
2022/06/04 03:50:32;;;;;;;9.47;8.37;;;14.60;67.60;;;17.40;51.73;102083.09;5131649;27;20206;-59
2022/06/04 03:52:59;;;;;;;10.70;8.10;;;14.50;67.70;;;17.38;52.08;102068.31;5150448;27;20619;-57
2022/06/04 03:55:27;;;;;;;12.00;9.13;;;14.50;67.90;;;17.40;51.90;102067.13;5139279;27;20568;-59
2022/06/04 03:57:54;;;;;;;12.37;9.10;;;14.50;67.90;;;17.42;51.76;102067.75;5107956;28;20202;-59
2022/06/04 04:00:27;;;;;;;11.33;9.13;;;14.50;67.90;;;17.44;51.51;102067.59;5079227;28;20243;-60
2022/06/04 04:02:56;;;;;;;10.70;8.57;;;14.50;67.80;;;17.44;51.52;102062.28;5072304;28;20197;-60
2022/06/04 04:05:29;;;;;;;10.37;9.00;;;14.50;68.20;;;17.39;51.75;102057.50;5083053;28;20538;-58
2022/06/04 04:08:16;;;;;;;10.50;9.37;;;14.50;68.90;;;17.34;51.86;102059.91;4982765;28;20211;-60
2022/06/04 04:10:42;;;;;;;9.13;8.27;;;14.40;67.90;;;17.32;52.00;102067.25;4855168;29;20204;-58
2022/06/04 04:13:21;;;;;;;8.10;7.30;;;14.40;68.30;;;17.35;52.19;102058.88;5171791;27;20634;-59
2022/06/04 04:15:48;;;;;;;8.53;7.63;;;14.40;68.40;;;17.40;52.02;102056.47;5137372;27;20600;-59
2022/06/04 04:18:15;;;;;;;9.70;8.57;;;14.50;68.30;;;17.47;51.98;102056.59;5134629;27;20198;-59
2022/06/04 04:20:48;;;;;;;10.93;9.37;;;14.50;68.20;;;17.50;51.63;102051.69;5149522;27;20190;-59
2022/06/04 04:23:15;;;;;;;10.50;7.63;;;14.60;68.00;;;17.52;51.69;102049.69;5123327;27;20211;-59
2022/06/04 04:25:42;;;;;;;10.87;7.90;;;14.60;67.90;;;17.55;51.46;102049.34;5129158;27;20238;-60
2022/06/04 04:28:09;;;;;;;11.87;8.10;;;14.60;67.60;;;17.59;51.72;102041.78;5146571;27;20224;-59
2022/06/04 04:34:18;;;;;;;10.57;8.17;;;14.70;67.70;;;17.68;51.52;102035.34;5179673;27;20637;-59
2022/06/04 04:36:45;;;;;;;13.70;8.70;;;14.80;67.50;;;17.73;51.18;102040.94;5172428;27;20192;-59
2022/06/04 04:39:12;;;;;;;12.57;9.17;;;14.80;67.00;;;17.77;51.15;102036.88;5171385;27;20212;-59
2022/06/04 04:41:39;;;;;;;10.53;9.43;;;14.90;67.00;;;17.81;51.01;102037.28;5170594;27;20201;-58
2022/06/04 04:44:06;;;;;;;10.83;8.53;;;14.90;67.70;;;17.84;50.93;102036.94;5153021;27;20286;-59
2022/06/04 04:46:33;;;;;;;10.97;8.50;;;14.90;67.00;;;17.86;50.88;102041.06;5084692;28;20311;-59
2022/06/04 04:49:00;;;;;;;9.97;7.67;;;15.00;67.10;;;17.88;50.68;102038.19;5099626;28;20198;-59
2022/06/04 04:51:30;;;;;;;10.43;7.83;;;15.00;66.80;;;17.89;50.87;102045.19;5059125;28;20196;-60
2022/06/04 04:53:56;;;;;;;8.90;8.00;;;15.00;66.70;;;17.90;50.77;102041.50;5080702;28;20248;-60
2022/06/04 04:58:56;;;;;;;8.23;7.27;;;15.00;66.80;;;17.95;50.84;102031.06;5171790;27;20864;-60
2022/06/04 05:01:26;;;;;;;8.67;7.60;;;15.00;66.60;;;17.98;50.43;102036.03;5150815;27;20323;-59
2022/06/04 05:03:54;;;;;;;10.00;8.13;;;15.00;66.60;;;17.99;50.44;102033.19;5150208;27;20199;-60
2022/06/04 05:06:30;;;;;;;12.20;8.57;;;15.10;66.60;;;18.00;50.56;102036.66;5125127;28;20215;-57
2022/06/04 05:08:56;;;;;;;9.10;7.43;;;15.00;66.50;;;17.99;50.71;102040.38;5063355;28;20198;-60
2022/06/04 05:11:27;;;;;;;9.10;7.73;;;15.10;67.50;;;18.01;50.74;102049.00;4989488;28;20278;-60
2022/06/04 05:13:56;;;;;;;9.43;8.07;;;15.10;66.80;;;18.05;50.32;102044.91;5041892;28;20194;-58
2022/06/04 05:19:37;;;;;;;9.83;8.60;;;15.10;66.60;;;18.07;50.74;102058.88;5171775;27;20637;-61
2022/06/04 05:22:04;;;;;;;9.17;8.07;;;15.20;66.80;;;18.09;50.52;102062.19;5150519;27;20555;-61
2022/06/04 05:24:34;;;;;;;8.17;7.30;;;15.20;66.80;;;18.14;50.88;102059.75;5142289;27;20285;-59
2022/06/04 05:27:02;;;;;;;13.30;8.10;;;15.20;66.80;;;18.20;50.55;102059.00;5149785;27;20274;-59
2022/06/04 05:29:31;;;;;;;9.57;8.00;;;15.30;67.60;;;18.26;50.58;102063.56;5124365;27;20279;-59
2022/06/04 05:32:00;;;;;;;9.90;7.67;;;15.30;66.60;;;18.28;50.38;102067.69;5103884;28;20656;-61
2022/06/04 05:34:27;;;;;;;8.77;7.50;;;15.30;66.70;;;18.32;50.33;102068.13;5084957;28;20192;-59
2022/06/04 05:40:33;;;;;;;7.80;7.00;;;15.40;66.80;;;18.42;50.50;102067.81;5170627;27;20657;-60
2022/06/04 05:43:00;;;;;;;10.00;7.50;;;15.50;66.70;;;18.49;50.51;102064.22;5130198;27;20203;-59
2022/06/04 05:45:27;;;;;;;7.93;7.13;;;15.60;66.90;;;18.57;50.37;102076.53;5142166;27;20271;-60
2022/06/04 05:47:54;;;;;;;9.27;6.93;;;15.60;66.70;;;18.65;50.41;102074.56;5149967;27;20194;-58
2022/06/04 05:50:21;;;;;;;9.03;8.13;;;15.70;66.70;;;18.71;50.47;102078.28;5113495;27;20200;-60
2022/06/04 05:52:47;;;;;;;11.30;7.57;;;15.80;66.70;;;18.75;50.35;102072.41;5074689;28;20200;-60
2022/06/04 05:55:14;;;;;;;11.77;8.90;;;15.90;67.30;;;18.87;50.17;102084.13;5063321;28;20220;-60
2022/06/04 05:57:43;;;;;;;11.53;8.87;;;15.90;66.50;;;19.00;50.13;102087.91;5004378;28;20248;-60
2022/06/04 06:00:10;;;;;;;13.17;10.43;;;16.00;66.60;;;19.07;49.99;102088.78;5005255;28;20270;-61
2022/06/04 06:05:14;;;;;;;12.40;9.13;;;16.00;66.60;;;19.13;49.77;102098.69;5164258;27;20636;-61
2022/06/04 06:07:41;;;;;;;10.50;7.00;;;16.10;66.40;;;19.17;49.57;102108.78;5130136;28;20207;-60
2022/06/04 06:10:09;;;;;;;9.97;7.00;;;16.10;66.20;;;19.23;49.51;102093.81;5110651;28;20211;-62
2022/06/04 06:12:35;;;;;;;12.07;7.43;;;16.20;66.20;;;19.30;49.47;102092.00;5128825;28;20277;-61
2022/06/04 06:15:03;;;;;;;9.23;8.33;;;16.20;66.00;;;19.38;49.44;102100.69;5109150;28;20245;-64
2022/06/04 06:17:30;;;;;;;8.33;7.53;;;16.30;65.80;;;19.44;49.32;102109.75;5098479;28;20675;-60
2022/06/04 06:19:56;;;;;;;11.00;8.00;;;16.40;65.70;;;19.52;49.21;102106.91;5104700;28;20745;-58
2022/06/04 06:23:54;;;;;;;10.23;6.93;;;16.40;65.60;;;19.39;49.06;102106.84;5054230;28;20562;-60
2022/06/04 06:29:04;;;;;;;8.10;6.73;;;16.40;65.40;;;19.67;48.84;102112.09;5171874;27;20625;-60
2022/06/04 06:31:34;;;;;;;8.00;7.20;;;16.70;65.40;;;19.81;48.66;102117.28;5132305;27;20248;-59
2022/06/04 06:34:01;;;;;;;9.23;8.33;;;16.80;65.70;;;19.90;48.72;102126.75;5112648;28;20199;-60
2022/06/04 06:36:28;;;;;;;13.20;11.80;;;16.80;64.60;;;19.99;48.42;102138.13;5080074;28;20214;-59
2022/06/04 06:38:56;;;;;;;8.47;7.03;;;16.90;64.60;;;20.08;47.99;102127.03;4994003;28;20220;-59
2022/06/04 06:41:25;;;;;;;10.00;7.07;;;17.00;64.20;;;20.16;47.74;102139.38;5012307;28;20653;-59
2022/06/04 06:43:53;;;;;;;8.73;7.83;;;17.10;63.90;;;20.19;47.67;102147.81;5064058;28;20287;-59
2022/06/04 06:49:29;;;;;;;9.40;8.10;;;17.10;63.50;;;20.21;47.67;102164.47;5161465;27;20643;-60
2022/06/04 06:51:59;;;;;;;10.17;8.27;;;17.10;63.50;;;20.20;47.39;102154.00;5112538;28;20270;-61
2022/06/04 06:54:31;;;;;;;9.77;8.80;;;17.10;63.70;;;20.24;47.83;102158.75;5123605;28;20191;-60
2022/06/04 06:57:03;;;;;;;11.60;10.40;;;17.20;63.90;;;20.31;47.62;102163.28;5096989;28;20227;-60
2022/06/04 06:59:30;;;;;;;14.23;10.30;;;17.20;63.80;;;20.40;47.42;102156.72;5086652;28;20193;-61
2022/06/04 07:01:58;;;;;;;11.63;8.97;;;17.20;63.80;;;20.52;47.46;102168.47;5095137;28;20636;-61
2022/06/04 07:04:28;;;;;;;11.47;9.77;;;17.30;63.80;;;20.57;46.89;102164.16;5029439;28;20208;-60
2022/06/04 07:06:59;;;;;;;10.60;8.33;;;17.30;63.70;;;20.60;46.94;102161.06;4853222;29;20225;-60
2022/06/04 07:09:40;;;;;;;10.70;9.10;;;17.40;63.80;;;20.71;46.98;102170.31;4691780;30;20214;-58
2022/06/04 07:14:44;;;;;;;9.87;8.83;;;17.50;63.90;;;21.12;46.51;102167.44;5166901;27;20639;-57
2022/06/04 07:17:11;;;;;;;15.90;8.67;;;17.70;63.50;;;21.33;46.40;102164.50;5129791;28;20207;-61
2022/06/04 07:19:38;;;;;;;11.40;9.20;;;17.90;63.50;;;21.49;45.56;102175.59;5128794;28;20198;-59
2022/06/04 07:22:05;;;;;;;10.93;9.93;;;18.00;62.60;;;21.55;45.72;102172.09;5119308;28;20199;-61
2022/06/04 07:24:32;;;;;;;10.13;8.97;;;18.10;62.30;;;21.63;45.51;102176.38;5094536;28;20208;-63
2022/06/04 07:26:59;;;;;;;11.17;10.03;;;18.20;61.90;;;21.71;45.22;102177.97;5107454;28;20195;-60
2022/06/04 07:29:26;;;;;;;10.17;9.17;;;18.30;61.40;;;21.73;45.28;102170.59;5107461;28;20195;-61
2022/06/04 07:31:54;;;;;;;10.13;7.63;;;18.40;61.10;;;21.75;44.72;102179.22;5092946;28;20207;-60
2022/06/04 07:34:21;;;;;;;9.23;8.33;;;18.50;60.90;;;21.75;45.17;102181.91;5009106;28;20576;-57
2022/06/04 07:39:25;;;;;;;9.23;7.50;;;18.50;60.70;;;21.88;44.77;102176.50;5171076;27;20649;-59
2022/06/04 07:41:54;;;;;;;10.87;9.70;;;18.70;60.50;;;21.96;44.58;102170.91;5150400;27;20484;-60
2022/06/04 07:44:24;;;;;;;12.40;10.07;;;18.70;60.40;;;21.94;44.87;102167.63;5149453;27;20561;-61
2022/06/04 07:46:53;;;;;;;12.73;9.07;;;18.70;60.30;;;21.89;44.63;102175.47;5130996;27;20277;-60
2022/06/04 07:49:21;;;;;;;8.50;7.53;;;18.70;60.30;;;21.85;45.03;102164.34;5121653;27;20216;-60
2022/06/04 07:51:50;;;;;;;10.33;6.87;;;18.70;60.20;;;21.91;44.83;102166.19;5091574;27;20672;-59
2022/06/04 07:54:18;;;;;;;9.63;8.73;;;18.80;60.30;;;21.99;44.41;102171.28;5073334;28;20241;-58
2022/06/04 07:59:24;;;;;;;9.17;7.53;;;18.80;60.20;;;22.04;44.52;102181.38;5171676;27;20962;-59
2022/06/04 08:01:51;;;;;;;10.93;8.40;;;18.80;60.10;;;22.07;44.65;102178.25;5150211;27;20318;-58
2022/06/04 08:04:39;;;;;;;12.03;8.00;;;18.90;60.30;;;21.97;44.54;102183.25;5094292;28;20309;-61
2022/06/04 08:07:06;;;;;;;8.30;7.50;;;19.00;59.80;;;21.97;44.89;102184.09;5108054;28;20196;-60
2022/06/04 08:09:34;;;;;;;8.40;7.27;;;19.10;59.80;;;22.08;45.07;102177.25;5082208;28;20197;-61
2022/06/04 08:12:00;;;;;;;10.63;7.33;;;19.10;59.80;;;22.58;44.39;102175.47;5066061;28;20284;-60
2022/06/04 08:14:28;;;;;;;10.17;6.83;;;19.30;60.30;;;23.64;43.34;102160.81;5116744;28;20539;-60
2022/06/04 08:18:13;;;;;;;13.90;8.87;;;19.60;60.80;;;25.40;39.80;102157.19;5122958;28;20639;-60
2022/06/04 08:23:14;;;;;;;10.87;7.30;;;20.00;59.20;;;27.63;35.49;102159.06;5171303;27;20864;-59
2022/06/04 08:25:44;;;;;;;6.97;5.77;;;21.60;55.90;;;28.85;33.89;102149.16;5137722;27;20306;-60
2022/06/04 08:28:11;;;;;;;12.83;7.13;;;22.40;54.80;;;29.93;31.56;102150.22;5130011;27;20203;-60
2022/06/04 08:30:38;;;;;;;8.43;7.50;;;23.30;52.00;;;30.50;30.33;102156.22;5127034;28;20205;-61
2022/06/04 08:33:05;;;;;;;7.63;6.87;;;23.90;48.80;;;30.89;28.84;102159.22;5103102;28;20307;-61
2022/06/04 08:35:32;;;;;;;7.53;6.80;;;24.40;47.20;;;31.33;29.19;102149.25;5105277;28;20286;-61
2022/06/04 08:38:05;;;;;;;9.07;8.13;;;25.00;46.90;;;32.21;27.51;102149.38;5124639;28;20199;-60
2022/06/04 08:41:48;;;;;;;10.90;9.47;;;25.60;45.40;;;33.04;26.20;102151.91;5077139;28;20256;-60
2022/06/04 08:44:14;;;;;;;8.60;6.43;;;26.30;41.90;;;33.47;25.61;102152.75;4832393;28;20349;-60
2022/06/04 08:47:01;;;;;;;6.83;5.57;;;26.60;41.10;;;33.63;24.70;102160.47;5171115;27;20630;-61
2022/06/04 08:49:33;;;;;;;9.17;6.13;;;26.90;39.90;;;33.97;25.25;102152.06;5131872;27;20688;-61
2022/06/04 08:52:03;;;;;;;5.60;5.10;;;27.30;40.30;;;34.64;25.11;102159.72;5149849;27;20270;-61
2022/06/04 08:57:36;;;;;;;6.97;5.80;;;28.20;39.70;;;36.09;23.30;102161.69;5060522;28;20236;-61
2022/06/04 09:00:12;;;;;;;7.27;6.67;;;28.70;38.20;;;36.55;22.38;102175.88;4950061;28;20203;-61
2022/06/04 09:02:56;;;;;;;6.63;5.83;;;29.10;35.60;;;36.60;21.23;102173.00;4859469;29;20201;-59
2022/06/04 09:05:22;;;;;;;5.90;5.33;;;29.30;34.20;;;36.52;21.47;102162.78;4639886;30;20652;-59
2022/06/04 09:10:36;;;;;;;6.77;5.90;;;29.40;33.70;;;36.71;21.71;102168.84;5171732;27;20645;-60
2022/06/04 09:13:12;;;;;;;6.00;5.40;;;29.70;33.20;;;37.12;21.12;102168.56;5150248;27;20202;-60
2022/06/04 09:15:45;;;;;;;6.87;6.03;;;30.00;33.40;;;37.58;20.06;102171.63;5145208;27;20267;-59
2022/06/04 09:18:18;;;;;;;6.70;6.10;;;30.20;32.10;;;37.71;19.77;102175.34;5102952;28;20306;-60
2022/06/04 09:20:49;;;;;;;5.37;4.87;;;30.30;31.60;;;37.99;20.01;102173.13;4990422;28;20291;-61
2022/06/04 09:23:30;;;;;;;6.53;5.93;;;30.60;32.40;;;38.45;19.68;102167.72;4972311;28;20200;-58
2022/06/04 09:26:21;;;;;;;7.40;6.70;;;30.90;31.80;;;38.38;19.15;102168.25;4849393;29;20277;-58
2022/06/04 09:28:47;;;;;;;6.07;5.57;;;30.90;30.40;;;38.14;19.46;102173.44;4610070;30;20748;-59
2022/06/04 09:33:58;;;;;;;7.47;5.30;;;31.10;30.80;;;38.55;19.36;102167.38;5171973;27;20600;-60
2022/06/04 09:36:30;;;;;;;4.90;4.40;;;31.20;30.10;;;38.80;19.06;102168.47;5112135;28;20662;-62
2022/06/04 09:39:01;;;;;;;6.03;5.40;;;31.30;30.00;;;39.10;17.96;102167.34;5148569;27;20334;-60
2022/06/04 09:41:31;;;;;;;5.82;5.22;;;31.40;28.90;;;39.04;17.29;102169.47;5149100;27;20277;-60
2022/06/04 09:44:14;;;;;;;6.33;5.37;;;31.40;27.80;;;38.79;17.67;102167.66;5125817;27;20353;-58
2022/06/04 09:46:43;;;;;;;7.43;6.73;;;31.50;28.70;;;38.56;17.96;102160.75;5063319;28;20196;-61
2022/06/04 09:49:30;;;;;;;6.23;5.73;;;31.30;28.50;;;38.35;18.39;102160.63;5061932;28;20283;-62
2022/06/04 09:54:40;;;;;;;6.38;5.28;;;31.20;29.10;;;38.90;17.66;102174.41;5168074;27;20639;-59
2022/06/04 09:57:25;;;;;;;4.97;4.57;;;31.40;28.10;;;39.43;17.51;102170.25;5094871;28;20239;-59
2022/06/04 09:59:56;;;;;;;5.35;4.82;;;31.70;28.30;;;39.79;16.78;102174.09;5066636;28;20307;-60
2022/06/04 10:02:24;;;;;;;5.75;4.57;;;32.00;27.10;;;39.90;16.45;102155.97;5059714;28;20293;-60
2022/06/04 10:05:03;;;;;;;5.28;3.80;;;32.00;26.70;;;40.17;16.36;102167.59;5021012;28;20600;-60
2022/06/04 10:07:33;;;;;;;7.22;6.55;;;32.20;27.40;;;40.56;16.32;102157.94;5029705;28;20236;-58
2022/06/04 10:10:23;;;;;;;5.00;4.15;;;32.60;27.00;;;41.17;15.31;102163.19;5051269;28;20248;-60
2022/06/04 10:15:36;;;;;;;4.25;3.45;;;33.20;26.60;;;42.35;15.05;102152.44;4759742;29;20301;-60
2022/06/04 10:18:25;;;;;;;5.35;4.65;;;33.60;26.30;;;42.71;13.51;102170.00;5171218;27;20667;-60
2022/06/04 10:21:00;;;;;;;6.63;6.13;;;33.80;23.50;;;42.52;13.61;102167.16;5131883;27;20674;-60
2022/06/04 10:23:31;;;;;;;4.10;3.80;;;34.00;23.80;;;42.87;13.80;102168.84;5149753;27;20247;-59
2022/06/04 10:26:29;;;;;;;3.25;2.95;;;34.20;24.20;;;43.34;13.09;102162.47;5130080;27;20221;-60
2022/06/04 10:29:43;;;;;;;4.05;3.75;;;34.50;23.20;;;43.49;13.76;102172.69;5043059;28;20228;-60
2022/06/04 10:32:23;;;;;;;3.67;3.35;;;34.70;23.60;;;43.98;13.76;102167.41;4806139;29;20313;-59
2022/06/04 10:36:40;;;;;;;3.50;3.20;;;35.00;23.90;;;44.41;12.40;102158.69;4677706;30;20244;-60
2022/06/04 10:39:06;;;;;;;3.55;3.25;;;35.30;22.70;;;44.19;12.64;102173.41;4476411;31;20327;-57
2022/06/04 10:41:53;;;;;;;3.40;3.13;;;35.40;22.10;;;44.14;12.75;102165.34;5140758;27;20394;-60
2022/06/04 10:44:54;;;;;;;2.80;2.60;;;35.60;22.40;;;43.43;12.09;102174.97;5087534;28;20622;-59
2022/06/04 10:47:31;;;;;;;3.35;2.72;;;35.60;21.90;;;42.65;13.19;102177.00;5076132;28;20265;-59
2022/06/04 10:51:25;;;;;;;4.10;3.80;;;35.60;21.50;;;41.26;14.20;102165.81;5042854;28;20216;-59
2022/06/04 10:53:45;;;;;;;3.28;2.97;;;35.40;21.60;;;39.97;15.47;102171.16;4889390;29;20221;-59
2022/06/04 10:56:21;;;;;;;4.22;3.50;;;34.90;22.50;;;39.79;15.54;102167.75;4798138;29;20232;-59
2022/06/04 11:02:21;;;;;;;3.72;3.42;;;34.30;23.20;;;39.79;15.51;102163.06;5167576;27;20630;-60
2022/06/04 11:04:55;;;;;;;4.85;3.40;;;34.20;23.00;;;38.76;15.87;102160.06;5127045;27;20226;-60
2022/06/04 11:07:40;;;;;;;3.67;3.38;;;34.00;22.90;;;37.47;17.22;102163.97;5095874;28;20493;-60
2022/06/04 11:10:17;;;;;;;6.10;5.50;;;33.60;23.50;;;36.35;18.49;102165.41;5068419;28;20216;-58
2022/06/04 11:12:55;;;;;;;5.37;4.90;;;33.00;24.30;;;35.29;19.21;102165.88;4956869;28;20210;-58
2022/06/04 11:15:30;;;;;;;4.17;3.87;;;32.30;24.80;;;34.43;20.11;102163.88;4810568;29;20230;-59
2022/06/04 11:18:12;;;;;;;4.00;3.70;;;31.70;25.30;;;33.61;20.51;102159.94;4777995;29;20212;-64
2022/06/04 11:20:38;;;;;;;3.87;3.00;;;30.90;26.10;;;33.03;21.53;102172.91;4674907;30;20230;-60
2022/06/04 11:23:04;;;;;;;6.63;6.03;;;30.30;27.00;;;32.56;22.41;102172.81;4702382;30;20272;-60
2022/06/04 11:25:49;;;;;;;5.27;4.27;;;29.80;28.00;;;32.03;23.37;102169.13;5158460;27;20655;-59
2022/06/04 11:28:23;;;;;;;5.20;3.73;;;29.30;28.90;;;31.63;23.67;102170.16;5111478;28;20221;-60
2022/06/04 11:31:06;;;;;;;3.97;3.40;;;28.90;29.60;;;31.31;24.71;102166.97;5109180;28;20184;-60
2022/06/04 11:33:57;;;;;;;4.70;3.80;;;28.60;30.40;;;31.03;24.98;102164.88;5061461;28;20197;-59
2022/06/04 11:36:38;;;;;;;8.90;8.00;;;28.30;30.80;;;30.78;25.56;102161.09;5018907;28;20662;-60
2022/06/04 11:39:22;;;;;;;4.97;4.27;;;28.10;31.70;;;30.63;25.37;102160.31;4927898;28;20288;-59
2022/06/04 11:41:59;;;;;;;4.40;4.00;;;27.80;32.50;;;30.51;25.98;102168.75;4834297;29;20399;-58
2022/06/04 11:44:34;;;;;;;4.30;3.90;;;27.70;32.90;;;30.41;26.34;102167.94;4711065;30;20590;-59
2022/06/04 11:49:51;;;;;;;4.00;3.70;;;27.50;33.10;;;30.47;25.65;102155.97;5171535;27;20638;-61
2022/06/04 11:52:26;;;;;;;8.20;5.23;;;27.40;33.40;;;30.49;25.61;102165.50;5132024;27;20222;-59
2022/06/04 11:55:21;;;;;;;6.10;5.23;;;27.20;33.60;;;30.18;25.90;102163.81;5116619;27;20221;-58
2022/06/04 11:58:25;;;;;;;5.80;4.77;;;27.10;33.60;;;29.93;26.24;102155.63;5099083;28;20287;-61
2022/06/04 12:01:00;;;;;;;5.60;4.47;;;27.10;34.00;;;29.77;26.94;102156.66;4880101;29;20262;-60
2022/06/04 12:03:36;;;;;;;5.10;4.00;;;26.90;34.10;;;29.69;27.23;102157.19;4822896;29;20242;-60
2022/06/04 12:06:12;;;;;;;4.87;3.90;;;26.90;34.60;;;29.64;27.00;102152.53;4731786;30;20260;-60